sensor_id;sensor_type;location;lat;lon;timestamp;temperature;humidity
29687;DHT22;16599;47.078;15.536;2023-05-10T00:00:21;6.80;99.90
29687;DHT22;16599;47.078;15.536;2023-05-10T00:02:50;6.70;99.90
29687;DHT22;16599;47.078;15.536;2023-05-10T00:05:17;6.70;99.90
29687;DHT22;16599;47.078;15.536;2023-05-10T00:07:44;6.80;99.90
29687;DHT22;16599;47.078;15.536;2023-05-10T00:10:11;6.60;99.90
29687;DHT22;16599;47.078;15.536;2023-05-10T00:12:38;6.70;99.90
29687;DHT22;16599;47.078;15.536;2023-05-10T00:15:06;6.70;99.90
29687;DHT22;16599;47.078;15.536;2023-05-10T00:17:33;6.90;99.90
29687;DHT22;16599;47.078;15.536;2023-05-10T00:20:00;6.70;99.90
29687;DHT22;16599;47.078;15.536;2023-05-10T00:22:27;6.60;99.90
29687;DHT22;16599;47.078;15.536;2023-05-10T00:24:53;6.60;99.90
29687;DHT22;16599;47.078;15.536;2023-05-10T00:27:20;6.50;99.90
29687;DHT22;16599;47.078;15.536;2023-05-10T00:29:47;6.60;99.90
29687;DHT22;16599;47.078;15.536;2023-05-10T00:32:14;6.60;99.90
29687;DHT22;16599;47.078;15.536;2023-05-10T00:34:41;6.60;99.90
29687;DHT22;16599;47.078;15.536;2023-05-10T00:37:08;6.40;99.90
29687;DHT22;16599;47.078;15.536;2023-05-10T00:39:34;6.50;99.90
29687;DHT22;16599;47.078;15.536;2023-05-10T00:42:01;6.50;99.90
29687;DHT22;16599;47.078;15.536;2023-05-10T00:44:28;6.00;99.90
29687;DHT22;16599;47.078;15.536;2023-05-10T00:46:55;5.70;99.90
29687;DHT22;16599;47.078;15.536;2023-05-10T00:49:22;5.90;99.90
29687;DHT22;16599;47.078;15.536;2023-05-10T00:51:49;5.80;99.90
29687;DHT22;16599;47.078;15.536;2023-05-10T00:54:16;5.80;99.90
29687;DHT22;16599;47.078;15.536;2023-05-10T00:56:43;6.00;99.90
29687;DHT22;16599;47.078;15.536;2023-05-10T00:59:15;6.00;99.90
29687;DHT22;16599;47.078;15.536;2023-05-10T01:01:45;5.90;99.90
29687;DHT22;16599;47.078;15.536;2023-05-10T01:04:14;5.90;99.90
29687;DHT22;16599;47.078;15.536;2023-05-10T01:06:41;5.80;99.90
29687;DHT22;16599;47.078;15.536;2023-05-10T01:09:08;5.80;99.90
29687;DHT22;16599;47.078;15.536;2023-05-10T01:11:36;5.60;99.90
29687;DHT22;16599;47.078;15.536;2023-05-10T01:14:04;5.60;99.90
29687;DHT22;16599;47.078;15.536;2023-05-10T01:16:39;5.60;99.90
29687;DHT22;16599;47.078;15.536;2023-05-10T01:19:16;5.60;99.90
29687;DHT22;16599;47.078;15.536;2023-05-10T01:33:19;5.60;99.90
29687;DHT22;16599;47.078;15.536;2023-05-10T01:35:59;5.70;99.90
29687;DHT22;16599;47.078;15.536;2023-05-10T01:38:41;5.40;99.90
29687;DHT22;16599;47.078;15.536;2023-05-10T01:47:05;5.40;99.90
29687;DHT22;16599;47.078;15.536;2023-05-10T01:49:43;5.60;99.90
29687;DHT22;16599;47.078;15.536;2023-05-10T01:52:12;5.30;99.90
29687;DHT22;16599;47.078;15.536;2023-05-10T01:54:44;5.30;99.90
29687;DHT22;16599;47.078;15.536;2023-05-10T01:57:16;5.40;99.90
29687;DHT22;16599;47.078;15.536;2023-05-10T01:59:50;5.20;99.90
29687;DHT22;16599;47.078;15.536;2023-05-10T02:02:20;5.30;99.90
29687;DHT22;16599;47.078;15.536;2023-05-10T02:04:49;5.30;99.90
29687;DHT22;16599;47.078;15.536;2023-05-10T02:07:17;5.10;99.90
29687;DHT22;16599;47.078;15.536;2023-05-10T02:09:45;5.30;99.90
29687;DHT22;16599;47.078;15.536;2023-05-10T02:12:16;5.20;99.90
29687;DHT22;16599;47.078;15.536;2023-05-10T02:14:44;5.30;99.90
29687;DHT22;16599;47.078;15.536;2023-05-10T02:17:12;5.30;99.90
29687;DHT22;16599;47.078;15.536;2023-05-10T02:19:40;5.50;99.90
29687;DHT22;16599;47.078;15.536;2023-05-10T02:22:09;5.40;99.90
29687;DHT22;16599;47.078;15.536;2023-05-10T02:24:37;5.20;99.90
29687;DHT22;16599;47.078;15.536;2023-05-10T02:27:06;5.30;99.90
29687;DHT22;16599;47.078;15.536;2023-05-10T02:29:33;5.30;99.90
29687;DHT22;16599;47.078;15.536;2023-05-10T02:32:01;5.30;99.90
29687;DHT22;16599;47.078;15.536;2023-05-10T02:34:29;5.30;99.90
29687;DHT22;16599;47.078;15.536;2023-05-10T02:36:58;5.20;99.90
29687;DHT22;16599;47.078;15.536;2023-05-10T02:39:26;5.10;99.90
29687;DHT22;16599;47.078;15.536;2023-05-10T02:41:56;5.00;99.90
29687;DHT22;16599;47.078;15.536;2023-05-10T02:44:23;5.10;99.90
29687;DHT22;16599;47.078;15.536;2023-05-10T02:46:53;5.10;99.90
29687;DHT22;16599;47.078;15.536;2023-05-10T02:49:22;5.10;99.90
29687;DHT22;16599;47.078;15.536;2023-05-10T02:51:52;5.00;99.90
29687;DHT22;16599;47.078;15.536;2023-05-10T02:54:27;5.10;99.90
29687;DHT22;16599;47.078;15.536;2023-05-10T02:56:58;5.00;99.90
29687;DHT22;16599;47.078;15.536;2023-05-10T02:59:27;4.90;99.90
29687;DHT22;16599;47.078;15.536;2023-05-10T03:01:54;5.00;99.90
29687;DHT22;16599;47.078;15.536;2023-05-10T03:04:20;5.00;99.90
29687;DHT22;16599;47.078;15.536;2023-05-10T03:06:48;5.00;99.90
29687;DHT22;16599;47.078;15.536;2023-05-10T03:09:15;4.70;99.90
29687;DHT22;16599;47.078;15.536;2023-05-10T03:11:47;5.00;99.90
29687;DHT22;16599;47.078;15.536;2023-05-10T03:19:55;4.90;99.90
29687;DHT22;16599;47.078;15.536;2023-05-10T03:22:36;4.70;99.90
29687;DHT22;16599;47.078;15.536;2023-05-10T03:25:07;4.70;99.90
29687;DHT22;16599;47.078;15.536;2023-05-10T03:27:41;4.90;99.90
29687;DHT22;16599;47.078;15.536;2023-05-10T03:30:11;5.00;99.90
29687;DHT22;16599;47.078;15.536;2023-05-10T03:32:39;5.00;99.90
29687;DHT22;16599;47.078;15.536;2023-05-10T03:35:07;5.20;99.90
29687;DHT22;16599;47.078;15.536;2023-05-10T03:37:35;5.10;99.90
29687;DHT22;16599;47.078;15.536;2023-05-10T03:40:02;4.90;99.90
29687;DHT22;16599;47.078;15.536;2023-05-10T03:42:29;4.70;99.90
29687;DHT22;16599;47.078;15.536;2023-05-10T03:44:56;4.70;99.90
29687;DHT22;16599;47.078;15.536;2023-05-10T03:47:23;4.80;99.90
29687;DHT22;16599;47.078;15.536;2023-05-10T03:49:50;4.90;99.90
29687;DHT22;16599;47.078;15.536;2023-05-10T03:52:17;5.00;99.90
29687;DHT22;16599;47.078;15.536;2023-05-10T03:54:44;5.10;99.90
29687;DHT22;16599;47.078;15.536;2023-05-10T03:57:11;5.20;99.90
29687;DHT22;16599;47.078;15.536;2023-05-10T03:59:38;5.30;99.90
29687;DHT22;16599;47.078;15.536;2023-05-10T04:02:05;5.30;99.90
29687;DHT22;16599;47.078;15.536;2023-05-10T04:04:32;5.20;99.90
29687;DHT22;16599;47.078;15.536;2023-05-10T04:06:59;5.10;99.90
29687;DHT22;16599;47.078;15.536;2023-05-10T04:09:25;5.10;99.90
29687;DHT22;16599;47.078;15.536;2023-05-10T04:11:52;5.10;99.90
29687;DHT22;16599;47.078;15.536;2023-05-10T04:14:19;5.20;99.90
29687;DHT22;16599;47.078;15.536;2023-05-10T04:16:46;5.20;99.90
29687;DHT22;16599;47.078;15.536;2023-05-10T04:19:13;5.30;99.90
29687;DHT22;16599;47.078;15.536;2023-05-10T04:21:40;5.40;99.90
29687;DHT22;16599;47.078;15.536;2023-05-10T04:24:07;5.50;99.90
29687;DHT22;16599;47.078;15.536;2023-05-10T04:26:33;5.60;99.90
29687;DHT22;16599;47.078;15.536;2023-05-10T04:29:00;5.50;99.90
29687;DHT22;16599;47.078;15.536;2023-05-10T04:31:27;5.50;99.90
29687;DHT22;16599;47.078;15.536;2023-05-10T04:33:54;5.70;99.90
29687;DHT22;16599;47.078;15.536;2023-05-10T04:36:21;5.80;99.90
29687;DHT22;16599;47.078;15.536;2023-05-10T04:38:48;5.90;99.90
29687;DHT22;16599;47.078;15.536;2023-05-10T04:41:15;6.00;99.90
29687;DHT22;16599;47.078;15.536;2023-05-10T04:43:41;6.10;99.90
29687;DHT22;16599;47.078;15.536;2023-05-10T04:46:08;6.10;99.90
29687;DHT22;16599;47.078;15.536;2023-05-10T04:48:35;6.20;99.90
29687;DHT22;16599;47.078;15.536;2023-05-10T04:51:02;6.30;99.90
29687;DHT22;16599;47.078;15.536;2023-05-10T04:53:30;6.50;99.90
29687;DHT22;16599;47.078;15.536;2023-05-10T04:55:58;6.60;99.90
29687;DHT22;16599;47.078;15.536;2023-05-10T04:58:24;6.70;99.90
29687;DHT22;16599;47.078;15.536;2023-05-10T05:00:51;6.90;99.90
29687;DHT22;16599;47.078;15.536;2023-05-10T05:03:18;7.10;99.90
29687;DHT22;16599;47.078;15.536;2023-05-10T05:05:45;7.00;99.90
29687;DHT22;16599;47.078;15.536;2023-05-10T05:08:12;7.10;99.90
29687;DHT22;16599;47.078;15.536;2023-05-10T05:10:39;7.10;99.90
29687;DHT22;16599;47.078;15.536;2023-05-10T05:13:06;7.10;99.90
29687;DHT22;16599;47.078;15.536;2023-05-10T05:15:33;7.20;99.90
29687;DHT22;16599;47.078;15.536;2023-05-10T05:18:00;7.10;99.90
29687;DHT22;16599;47.078;15.536;2023-05-10T05:20:27;7.10;99.90
29687;DHT22;16599;47.078;15.536;2023-05-10T05:22:54;7.10;99.90
29687;DHT22;16599;47.078;15.536;2023-05-10T05:25:21;7.20;99.90
29687;DHT22;16599;47.078;15.536;2023-05-10T05:27:48;7.40;99.90
29687;DHT22;16599;47.078;15.536;2023-05-10T05:30:15;7.40;99.90
29687;DHT22;16599;47.078;15.536;2023-05-10T05:32:42;7.30;99.90
29687;DHT22;16599;47.078;15.536;2023-05-10T05:35:09;7.30;99.90
29687;DHT22;16599;47.078;15.536;2023-05-10T05:37:36;7.50;99.90
29687;DHT22;16599;47.078;15.536;2023-05-10T05:40:04;7.50;99.90
29687;DHT22;16599;47.078;15.536;2023-05-10T05:42:31;7.70;99.90
29687;DHT22;16599;47.078;15.536;2023-05-10T05:44:58;7.80;99.90
29687;DHT22;16599;47.078;15.536;2023-05-10T05:47:25;8.00;99.90
29687;DHT22;16599;47.078;15.536;2023-05-10T05:49:52;8.10;99.90
29687;DHT22;16599;47.078;15.536;2023-05-10T05:52:19;8.20;99.90
29687;DHT22;16599;47.078;15.536;2023-05-10T05:54:46;8.30;99.90
29687;DHT22;16599;47.078;15.536;2023-05-10T05:57:13;8.40;99.90
29687;DHT22;16599;47.078;15.536;2023-05-10T05:59:40;8.60;99.90
29687;DHT22;16599;47.078;15.536;2023-05-10T06:02:10;8.80;99.90
29687;DHT22;16599;47.078;15.536;2023-05-10T06:04:37;9.00;99.90
29687;DHT22;16599;47.078;15.536;2023-05-10T06:07:04;9.30;99.90
29687;DHT22;16599;47.078;15.536;2023-05-10T06:09:31;9.50;99.90
29687;DHT22;16599;47.078;15.536;2023-05-10T06:11:58;9.80;99.90
29687;DHT22;16599;47.078;15.536;2023-05-10T06:14:25;10.00;99.90
29687;DHT22;16599;47.078;15.536;2023-05-10T06:16:52;10.30;99.90
29687;DHT22;16599;47.078;15.536;2023-05-10T06:19:18;10.50;99.90
29687;DHT22;16599;47.078;15.536;2023-05-10T06:21:45;10.60;99.90
29687;DHT22;16599;47.078;15.536;2023-05-10T06:24:12;10.70;99.90
29687;DHT22;16599;47.078;15.536;2023-05-10T06:26:39;10.80;99.90
29687;DHT22;16599;47.078;15.536;2023-05-10T06:29:07;11.00;99.90
29687;DHT22;16599;47.078;15.536;2023-05-10T06:31:34;11.00;99.90
29687;DHT22;16599;47.078;15.536;2023-05-10T06:34:09;11.10;99.90
29687;DHT22;16599;47.078;15.536;2023-05-10T06:36:36;11.30;99.90
29687;DHT22;16599;47.078;15.536;2023-05-10T06:39:03;11.30;99.90
29687;DHT22;16599;47.078;15.536;2023-05-10T06:41:30;11.30;99.90
29687;DHT22;16599;47.078;15.536;2023-05-10T06:43:56;11.40;99.90
29687;DHT22;16599;47.078;15.536;2023-05-10T06:46:23;11.40;99.90
29687;DHT22;16599;47.078;15.536;2023-05-10T06:48:50;11.40;99.90
29687;DHT22;16599;47.078;15.536;2023-05-10T06:51:17;11.50;99.90
29687;DHT22;16599;47.078;15.536;2023-05-10T06:53:44;11.60;99.90
29687;DHT22;16599;47.078;15.536;2023-05-10T06:56:11;11.80;99.90
29687;DHT22;16599;47.078;15.536;2023-05-10T06:58:38;11.90;99.90
29687;DHT22;16599;47.078;15.536;2023-05-10T07:01:05;11.90;99.90
29687;DHT22;16599;47.078;15.536;2023-05-10T07:03:32;12.00;99.60
29687;DHT22;16599;47.078;15.536;2023-05-10T07:06:03;12.10;99.20
29687;DHT22;16599;47.078;15.536;2023-05-10T07:08:34;12.10;97.40
29687;DHT22;16599;47.078;15.536;2023-05-10T07:11:05;12.10;97.50
29687;DHT22;16599;47.078;15.536;2023-05-10T07:13:33;12.10;96.50
29687;DHT22;16599;47.078;15.536;2023-05-10T07:16:00;12.10;96.80
29687;DHT22;16599;47.078;15.536;2023-05-10T07:18:28;12.10;97.90
29687;DHT22;16599;47.078;15.536;2023-05-10T07:20:57;12.10;97.40
29687;DHT22;16599;47.078;15.536;2023-05-10T07:23:24;12.30;98.10
29687;DHT22;16599;47.078;15.536;2023-05-10T07:25:51;12.30;95.80
29687;DHT22;16599;47.078;15.536;2023-05-10T07:28:21;12.40;97.60
29687;DHT22;16599;47.078;15.536;2023-05-10T07:30:48;12.50;97.40
29687;DHT22;16599;47.078;15.536;2023-05-10T07:33:15;12.50;95.10
29687;DHT22;16599;47.078;15.536;2023-05-10T07:35:42;12.40;95.00
29687;DHT22;16599;47.078;15.536;2023-05-10T07:38:09;12.50;94.50
29687;DHT22;16599;47.078;15.536;2023-05-10T07:40:39;12.50;95.10
29687;DHT22;16599;47.078;15.536;2023-05-10T07:43:06;12.40;93.50
29687;DHT22;16599;47.078;15.536;2023-05-10T07:45:33;12.40;93.10
29687;DHT22;16599;47.078;15.536;2023-05-10T07:48:00;12.60;95.40
29687;DHT22;16599;47.078;15.536;2023-05-10T07:50:27;12.80;93.80
29687;DHT22;16599;47.078;15.536;2023-05-10T07:52:54;12.90;93.50
29687;DHT22;16599;47.078;15.536;2023-05-10T07:55:21;13.00;93.40
29687;DHT22;16599;47.078;15.536;2023-05-10T07:57:48;13.00;93.70
29687;DHT22;16599;47.078;15.536;2023-05-10T08:00:19;13.20;93.20
29687;DHT22;16599;47.078;15.536;2023-05-10T08:02:47;13.30;93.90
29687;DHT22;16599;47.078;15.536;2023-05-10T08:05:14;13.30;92.50
29687;DHT22;16599;47.078;15.536;2023-05-10T08:07:42;13.30;91.90
29687;DHT22;16599;47.078;15.536;2023-05-10T08:10:09;13.20;92.40
29687;DHT22;16599;47.078;15.536;2023-05-10T08:12:38;13.30;92.90
29687;DHT22;16599;47.078;15.536;2023-05-10T08:15:05;13.50;92.20
29687;DHT22;16599;47.078;15.536;2023-05-10T08:17:33;13.40;91.20
29687;DHT22;16599;47.078;15.536;2023-05-10T08:20:00;13.40;92.60
29687;DHT22;16599;47.078;15.536;2023-05-10T08:22:26;13.30;91.20
29687;DHT22;16599;47.078;15.536;2023-05-10T08:24:54;13.40;91.00
29687;DHT22;16599;47.078;15.536;2023-05-10T08:27:20;13.40;90.90
29687;DHT22;16599;47.078;15.536;2023-05-10T08:29:47;13.50;90.90
29687;DHT22;16599;47.078;15.536;2023-05-10T08:32:16;13.70;92.00
29687;DHT22;16599;47.078;15.536;2023-05-10T08:34:43;13.60;89.90
29687;DHT22;16599;47.078;15.536;2023-05-10T08:37:10;13.40;90.20
29687;DHT22;16599;47.078;15.536;2023-05-10T08:39:40;13.60;90.30
29687;DHT22;16599;47.078;15.536;2023-05-10T08:42:07;13.70;91.30
29687;DHT22;16599;47.078;15.536;2023-05-10T08:44:36;13.50;89.80
29687;DHT22;16599;47.078;15.536;2023-05-10T08:47:05;13.50;91.50
29687;DHT22;16599;47.078;15.536;2023-05-10T08:49:33;13.70;89.80
29687;DHT22;16599;47.078;15.536;2023-05-10T08:52:03;13.60;89.40
29687;DHT22;16599;47.078;15.536;2023-05-10T08:54:33;13.70;90.30
29687;DHT22;16599;47.078;15.536;2023-05-10T08:57:01;13.80;90.40
29687;DHT22;16599;47.078;15.536;2023-05-10T08:59:28;13.90;90.00
29687;DHT22;16599;47.078;15.536;2023-05-10T09:01:58;14.00;89.60
29687;DHT22;16599;47.078;15.536;2023-05-10T09:04:27;14.10;86.20
29687;DHT22;16599;47.078;15.536;2023-05-10T09:06:54;14.00;86.80
29687;DHT22;16599;47.078;15.536;2023-05-10T09:09:21;14.00;87.20
29687;DHT22;16599;47.078;15.536;2023-05-10T09:11:49;14.20;89.40
29687;DHT22;16599;47.078;15.536;2023-05-10T09:14:16;14.40;85.50
29687;DHT22;16599;47.078;15.536;2023-05-10T09:16:43;14.70;88.20
29687;DHT22;16599;47.078;15.536;2023-05-10T09:19:11;14.90;85.40
29687;DHT22;16599;47.078;15.536;2023-05-10T09:21:38;14.70;84.70
29687;DHT22;16599;47.078;15.536;2023-05-10T09:24:06;14.90;88.00
29687;DHT22;16599;47.078;15.536;2023-05-10T09:26:34;14.80;86.40
29687;DHT22;16599;47.078;15.536;2023-05-10T09:29:03;15.00;84.10
29687;DHT22;16599;47.078;15.536;2023-05-10T09:31:50;14.90;85.00
29687;DHT22;16599;47.078;15.536;2023-05-10T09:34:32;14.70;82.80
29687;DHT22;16599;47.078;15.536;2023-05-10T09:37:02;14.90;83.90
29687;DHT22;16599;47.078;15.536;2023-05-10T09:39:35;14.90;82.10
29687;DHT22;16599;47.078;15.536;2023-05-10T09:42:07;15.20;85.60
29687;DHT22;16599;47.078;15.536;2023-05-10T09:44:35;15.20;81.90
29687;DHT22;16599;47.078;15.536;2023-05-10T09:47:03;15.10;81.30
29687;DHT22;16599;47.078;15.536;2023-05-10T09:49:30;14.90;82.60
29687;DHT22;16599;47.078;15.536;2023-05-10T09:52:05;15.30;85.70
29687;DHT22;16599;47.078;15.536;2023-05-10T09:54:33;15.30;82.40
29687;DHT22;16599;47.078;15.536;2023-05-10T09:57:00;15.30;79.50
29687;DHT22;16599;47.078;15.536;2023-05-10T09:59:28;15.30;81.90
29687;DHT22;16599;47.078;15.536;2023-05-10T10:01:56;15.30;80.30
29687;DHT22;16599;47.078;15.536;2023-05-10T10:04:23;15.30;79.20
29687;DHT22;16599;47.078;15.536;2023-05-10T10:07:04;15.30;81.50
29687;DHT22;16599;47.078;15.536;2023-05-10T10:09:31;15.00;80.40
29687;DHT22;16599;47.078;15.536;2023-05-10T10:12:02;14.90;83.30
29687;DHT22;16599;47.078;15.536;2023-05-10T10:14:29;15.40;89.30
29687;DHT22;16599;47.078;15.536;2023-05-10T10:16:56;16.00;80.30
29687;DHT22;16599;47.078;15.536;2023-05-10T10:19:34;16.10;78.50
29687;DHT22;16599;47.078;15.536;2023-05-10T10:22:03;16.30;77.90
29687;DHT22;16599;47.078;15.536;2023-05-10T10:24:30;15.70;78.60
29687;DHT22;16599;47.078;15.536;2023-05-10T10:27:04;15.90;82.00
29687;DHT22;16599;47.078;15.536;2023-05-10T10:29:43;16.30;80.20
29687;DHT22;16599;47.078;15.536;2023-05-10T10:35:09;16.40;80.80
29687;DHT22;16599;47.078;15.536;2023-05-10T10:37:47;16.70;78.00
29687;DHT22;16599;47.078;15.536;2023-05-10T10:40:29;16.70;75.20
29687;DHT22;16599;47.078;15.536;2023-05-10T10:43:26;16.90;78.30
29687;DHT22;16599;47.078;15.536;2023-05-10T10:46:13;16.40;76.10
29687;DHT22;16599;47.078;15.536;2023-05-10T10:48:41;16.10;76.20
29687;DHT22;16599;47.078;15.536;2023-05-10T10:51:14;15.40;79.10
29687;DHT22;16599;47.078;15.536;2023-05-10T10:53:41;15.70;80.40
29687;DHT22;16599;47.078;15.536;2023-05-10T10:56:12;15.70;81.00
29687;DHT22;16599;47.078;15.536;2023-05-10T10:58:49;15.90;80.60
29687;DHT22;16599;47.078;15.536;2023-05-10T11:01:18;16.10;82.60
29687;DHT22;16599;47.078;15.536;2023-05-10T11:06:42;16.00;82.50
29687;DHT22;16599;47.078;15.536;2023-05-10T11:09:10;16.00;81.40
29687;DHT22;16599;47.078;15.536;2023-05-10T11:11:54;15.90;81.60
29687;DHT22;16599;47.078;15.536;2023-05-10T11:14:25;15.80;81.40
29687;DHT22;16599;47.078;15.536;2023-05-10T11:16:52;15.80;82.20
29687;DHT22;16599;47.078;15.536;2023-05-10T11:19:19;15.80;84.30
29687;DHT22;16599;47.078;15.536;2023-05-10T11:21:47;15.90;83.10
29687;DHT22;16599;47.078;15.536;2023-05-10T11:24:20;15.80;83.60
29687;DHT22;16599;47.078;15.536;2023-05-10T11:26:49;15.70;84.10
29687;DHT22;16599;47.078;15.536;2023-05-10T11:29:17;15.60;82.50
29687;DHT22;16599;47.078;15.536;2023-05-10T11:31:44;15.70;82.30
29687;DHT22;16599;47.078;15.536;2023-05-10T11:34:13;15.70;81.20
29687;DHT22;16599;47.078;15.536;2023-05-10T11:36:53;15.60;81.20
29687;DHT22;16599;47.078;15.536;2023-05-10T11:39:21;15.60;83.30
29687;DHT22;16599;47.078;15.536;2023-05-10T11:41:52;15.50;83.00
29687;DHT22;16599;47.078;15.536;2023-05-10T11:44:18;15.70;82.30
29687;DHT22;16599;47.078;15.536;2023-05-10T11:46:45;15.70;82.80
29687;DHT22;16599;47.078;15.536;2023-05-10T11:49:12;15.80;81.10
29687;DHT22;16599;47.078;15.536;2023-05-10T11:51:40;15.40;81.90
29687;DHT22;16599;47.078;15.536;2023-05-10T11:54:10;15.70;82.90
29687;DHT22;16599;47.078;15.536;2023-05-10T11:56:38;15.60;82.60
29687;DHT22;16599;47.078;15.536;2023-05-10T11:59:05;15.70;82.70
29687;DHT22;16599;47.078;15.536;2023-05-10T12:01:33;15.80;80.60
29687;DHT22;16599;47.078;15.536;2023-05-10T12:04:00;15.70;82.40
29687;DHT22;16599;47.078;15.536;2023-05-10T12:06:29;15.50;81.30
29687;DHT22;16599;47.078;15.536;2023-05-10T12:08:58;15.60;83.60
29687;DHT22;16599;47.078;15.536;2023-05-10T12:11:26;15.60;82.90
29687;DHT22;16599;47.078;15.536;2023-05-10T12:13:54;15.70;83.70
29687;DHT22;16599;47.078;15.536;2023-05-10T12:16:28;15.80;84.00
29687;DHT22;16599;47.078;15.536;2023-05-10T12:19:00;15.50;84.30
29687;DHT22;16599;47.078;15.536;2023-05-10T12:21:29;15.50;81.80
29687;DHT22;16599;47.078;15.536;2023-05-10T12:24:02;15.50;83.00
29687;DHT22;16599;47.078;15.536;2023-05-10T12:26:30;15.60;83.50
29687;DHT22;16599;47.078;15.536;2023-05-10T12:29:19;15.50;80.20
29687;DHT22;16599;47.078;15.536;2023-05-10T12:31:54;15.40;81.40
29687;DHT22;16599;47.078;15.536;2023-05-10T12:34:25;15.50;80.40
29687;DHT22;16599;47.078;15.536;2023-05-10T12:36:53;15.30;81.90
29687;DHT22;16599;47.078;15.536;2023-05-10T12:39:19;15.30;80.60
29687;DHT22;16599;47.078;15.536;2023-05-10T12:41:46;15.40;83.20
29687;DHT22;16599;47.078;15.536;2023-05-10T12:44:14;15.30;83.10
29687;DHT22;16599;47.078;15.536;2023-05-10T12:46:41;15.30;84.10
29687;DHT22;16599;47.078;15.536;2023-05-10T12:49:07;15.30;84.40
29687;DHT22;16599;47.078;15.536;2023-05-10T12:51:35;15.30;84.50
29687;DHT22;16599;47.078;15.536;2023-05-10T12:54:02;15.20;82.40
29687;DHT22;16599;47.078;15.536;2023-05-10T12:56:31;15.20;84.10
29687;DHT22;16599;47.078;15.536;2023-05-10T12:58:57;15.20;82.40
29687;DHT22;16599;47.078;15.536;2023-05-10T13:01:24;15.20;82.90
29687;DHT22;16599;47.078;15.536;2023-05-10T13:03:51;15.20;86.80
29687;DHT22;16599;47.078;15.536;2023-05-10T13:06:18;15.10;84.80
29687;DHT22;16599;47.078;15.536;2023-05-10T13:08:45;15.10;83.80
29687;DHT22;16599;47.078;15.536;2023-05-10T13:11:12;15.00;86.20
29687;DHT22;16599;47.078;15.536;2023-05-10T13:13:43;14.90;85.30
29687;DHT22;16599;47.078;15.536;2023-05-10T13:16:09;15.00;87.50
29687;DHT22;16599;47.078;15.536;2023-05-10T13:18:36;14.90;86.30
29687;DHT22;16599;47.078;15.536;2023-05-10T13:21:03;14.90;87.60
29687;DHT22;16599;47.078;15.536;2023-05-10T13:23:32;14.90;89.80
29687;DHT22;16599;47.078;15.536;2023-05-10T13:25:58;14.80;88.80
29687;DHT22;16599;47.078;15.536;2023-05-10T13:28:25;15.00;88.90
29687;DHT22;16599;47.078;15.536;2023-05-10T13:30:53;15.00;85.70
29687;DHT22;16599;47.078;15.536;2023-05-10T13:33:19;15.10;86.50
29687;DHT22;16599;47.078;15.536;2023-05-10T13:35:46;15.00;88.20
29687;DHT22;16599;47.078;15.536;2023-05-10T13:38:13;15.00;88.70
29687;DHT22;16599;47.078;15.536;2023-05-10T13:40:40;15.00;85.70
29687;DHT22;16599;47.078;15.536;2023-05-10T13:43:07;15.00;86.30
29687;DHT22;16599;47.078;15.536;2023-05-10T13:45:34;15.10;86.70
29687;DHT22;16599;47.078;15.536;2023-05-10T13:48:01;15.10;87.90
29687;DHT22;16599;47.078;15.536;2023-05-10T13:50:28;15.30;85.20
29687;DHT22;16599;47.078;15.536;2023-05-10T13:52:55;15.30;85.00
29687;DHT22;16599;47.078;15.536;2023-05-10T13:55:22;15.40;86.60
29687;DHT22;16599;47.078;15.536;2023-05-10T13:57:49;15.40;85.40
29687;DHT22;16599;47.078;15.536;2023-05-10T14:00:16;15.60;87.70
29687;DHT22;16599;47.078;15.536;2023-05-10T14:02:43;15.70;86.50
29687;DHT22;16599;47.078;15.536;2023-05-10T14:05:10;15.70;84.20
29687;DHT22;16599;47.078;15.536;2023-05-10T14:07:38;15.60;85.10
29687;DHT22;16599;47.078;15.536;2023-05-10T14:10:05;15.50;84.40
29687;DHT22;16599;47.078;15.536;2023-05-10T14:12:32;15.50;84.40
29687;DHT22;16599;47.078;15.536;2023-05-10T14:14:59;15.50;86.50
29687;DHT22;16599;47.078;15.536;2023-05-10T14:17:26;15.60;85.90
29687;DHT22;16599;47.078;15.536;2023-05-10T14:19:54;15.60;85.30
29687;DHT22;16599;47.078;15.536;2023-05-10T14:22:20;15.70;85.00
29687;DHT22;16599;47.078;15.536;2023-05-10T14:24:48;15.70;84.30
29687;DHT22;16599;47.078;15.536;2023-05-10T14:27:15;15.90;84.60
29687;DHT22;16599;47.078;15.536;2023-05-10T14:29:42;16.00;84.70
29687;DHT22;16599;47.078;15.536;2023-05-10T14:32:09;16.20;83.20
29687;DHT22;16599;47.078;15.536;2023-05-10T14:34:36;16.10;84.40
29687;DHT22;16599;47.078;15.536;2023-05-10T14:37:03;16.30;84.00
29687;DHT22;16599;47.078;15.536;2023-05-10T14:39:31;16.30;83.20
29687;DHT22;16599;47.078;15.536;2023-05-10T14:41:57;16.10;82.90
29687;DHT22;16599;47.078;15.536;2023-05-10T14:44:25;16.00;82.10
29687;DHT22;16599;47.078;15.536;2023-05-10T14:46:52;16.20;83.80
29687;DHT22;16599;47.078;15.536;2023-05-10T14:49:19;16.40;83.10
29687;DHT22;16599;47.078;15.536;2023-05-10T14:51:49;16.60;82.90
29687;DHT22;16599;47.078;15.536;2023-05-10T14:54:16;16.60;79.20
29687;DHT22;16599;47.078;15.536;2023-05-10T14:56:43;16.40;79.70
29687;DHT22;16599;47.078;15.536;2023-05-10T14:59:09;16.10;81.30
29687;DHT22;16599;47.078;15.536;2023-05-10T15:01:37;15.90;83.10
29687;DHT22;16599;47.078;15.536;2023-05-10T15:04:04;15.70;83.10
29687;DHT22;16599;47.078;15.536;2023-05-10T15:06:32;15.70;84.60
29687;DHT22;16599;47.078;15.536;2023-05-10T15:09:01;15.80;84.20
29687;DHT22;16599;47.078;15.536;2023-05-10T15:11:29;15.90;85.30
29687;DHT22;16599;47.078;15.536;2023-05-10T15:13:56;16.00;85.30
29687;DHT22;16599;47.078;15.536;2023-05-10T15:16:23;16.00;86.90
29687;DHT22;16599;47.078;15.536;2023-05-10T15:18:50;16.00;82.70
29687;DHT22;16599;47.078;15.536;2023-05-10T15:21:17;16.00;82.80
29687;DHT22;16599;47.078;15.536;2023-05-10T15:23:44;15.80;84.70
29687;DHT22;16599;47.078;15.536;2023-05-10T15:26:11;15.70;85.40
29687;DHT22;16599;47.078;15.536;2023-05-10T15:28:37;15.70;84.80
29687;DHT22;16599;47.078;15.536;2023-05-10T15:31:04;15.60;82.40
29687;DHT22;16599;47.078;15.536;2023-05-10T15:33:31;15.60;82.80
29687;DHT22;16599;47.078;15.536;2023-05-10T15:35:58;15.60;85.10
29687;DHT22;16599;47.078;15.536;2023-05-10T15:38:25;15.70;83.40
29687;DHT22;16599;47.078;15.536;2023-05-10T15:40:56;15.60;80.00
29687;DHT22;16599;47.078;15.536;2023-05-10T15:43:24;15.50;79.60
29687;DHT22;16599;47.078;15.536;2023-05-10T15:45:51;15.50;79.80
29687;DHT22;16599;47.078;15.536;2023-05-10T15:48:18;15.50;80.30
29687;DHT22;16599;47.078;15.536;2023-05-10T15:50:44;15.60;80.20
29687;DHT22;16599;47.078;15.536;2023-05-10T15:53:11;15.60;80.30
29687;DHT22;16599;47.078;15.536;2023-05-10T15:55:38;15.60;83.20
29687;DHT22;16599;47.078;15.536;2023-05-10T15:58:05;15.60;82.20